sensor_id;sensor_type;location;lat;lon;timestamp;pressure;altitude;pressure_sealevel;temperature;humidity
42771;BME280;28426;42.872;25.314;2023-05-07T00:00:44;97248.22;;;10.40;79.58
42771;BME280;28426;42.872;25.314;2023-05-07T00:03:14;97258.25;;;10.38;79.73
42771;BME280;28426;42.872;25.314;2023-05-07T00:05:46;97256.97;;;10.33;79.51
42771;BME280;28426;42.872;25.314;2023-05-07T00:08:17;97255.28;;;10.32;79.67
42771;BME280;28426;42.872;25.314;2023-05-07T00:10:48;97258.31;;;10.29;79.80
42771;BME280;28426;42.872;25.314;2023-05-07T00:13:18;97249.03;;;10.25;79.71
42771;BME280;28426;42.872;25.314;2023-05-07T00:15:52;97252.22;;;10.20;79.79
42771;BME280;28426;42.872;25.314;2023-05-07T00:18:23;97253.41;;;10.18;79.63
42771;BME280;28426;42.872;25.314;2023-05-07T00:20:54;97256.41;;;10.15;79.78
42771;BME280;28426;42.872;25.314;2023-05-07T00:23:25;97255.59;;;10.14;79.65
42771;BME280;28426;42.872;25.314;2023-05-07T00:25:56;97254.31;;;10.10;79.63
42771;BME280;28426;42.872;25.314;2023-05-07T00:28:26;97258.16;;;10.07;79.87
42771;BME280;28426;42.872;25.314;2023-05-07T00:31:00;97257.88;;;10.02;79.59
42771;BME280;28426;42.872;25.314;2023-05-07T00:33:31;97255.53;;;9.99;79.55
42771;BME280;28426;42.872;25.314;2023-05-07T00:36:02;97253.22;;;9.96;79.66
42771;BME280;28426;42.872;25.314;2023-05-07T00:38:33;97256.44;;;9.91;79.46
42771;BME280;28426;42.872;25.314;2023-05-07T00:41:04;97260.28;;;9.89;79.48
42771;BME280;28426;42.872;25.314;2023-05-07T00:43:35;97258.31;;;9.82;79.36
42771;BME280;28426;42.872;25.314;2023-05-07T00:46:08;97256.00;;;9.79;79.39
42771;BME280;28426;42.872;25.314;2023-05-07T00:48:40;97249.06;;;9.70;79.40
42771;BME280;28426;42.872;25.314;2023-05-07T00:51:11;97258.56;;;9.73;79.79
42771;BME280;28426;42.872;25.314;2023-05-07T00:53:42;97258.06;;;9.69;79.77
42771;BME280;28426;42.872;25.314;2023-05-07T00:56:13;97253.56;;;9.70;79.84
42771;BME280;28426;42.872;25.314;2023-05-07T00:58:44;97260.06;;;9.67;79.92
42771;BME280;28426;42.872;25.314;2023-05-07T01:01:18;97260.25;;;9.65;79.78
42771;BME280;28426;42.872;25.314;2023-05-07T01:03:49;97260.41;;;9.64;79.67
42771;BME280;28426;42.872;25.314;2023-05-07T01:06:21;97259.78;;;9.62;79.60
42771;BME280;28426;42.872;25.314;2023-05-07T01:08:55;97255.63;;;9.59;79.96
42771;BME280;28426;42.872;25.314;2023-05-07T01:11:27;97259.47;;;9.57;79.86
42771;BME280;28426;42.872;25.314;2023-05-07T01:13:59;97255.50;;;9.52;79.82
42771;BME280;28426;42.872;25.314;2023-05-07T01:16:33;97260.16;;;9.50;79.72
42771;BME280;28426;42.872;25.314;2023-05-07T01:19:04;97259.84;;;9.45;79.69
42771;BME280;28426;42.872;25.314;2023-05-07T01:21:37;97261.19;;;9.41;79.69
42771;BME280;28426;42.872;25.314;2023-05-07T01:24:11;97258.22;;;9.36;79.71
42771;BME280;28426;42.872;25.314;2023-05-07T01:26:43;97256.91;;;9.32;79.82
42771;BME280;28426;42.872;25.314;2023-05-07T01:29:16;97255.59;;;9.27;79.83
42771;BME280;28426;42.872;25.314;2023-05-07T01:31:48;97261.25;;;9.24;79.61
42771;BME280;28426;42.872;25.314;2023-05-07T01:34:21;97262.59;;;9.20;79.56
42771;BME280;28426;42.872;25.314;2023-05-07T01:36:54;97261.13;;;9.18;79.71
42771;BME280;28426;42.872;25.314;2023-05-07T01:39:29;97262.47;;;9.13;79.64
42771;BME280;28426;42.872;25.314;2023-05-07T01:42:00;97267.31;;;9.10;79.65
42771;BME280;28426;42.872;25.314;2023-05-07T01:44:31;97262.53;;;9.05;79.68
42771;BME280;28426;42.872;25.314;2023-05-07T01:47:02;97261.38;;;8.99;79.58
42771;BME280;28426;42.872;25.314;2023-05-07T01:49:34;97256.53;;;8.95;79.69
42771;BME280;28426;42.872;25.314;2023-05-07T01:52:05;97251.75;;;8.90;79.71
42771;BME280;28426;42.872;25.314;2023-05-07T01:54:38;97248.41;;;8.88;79.68
42771;BME280;28426;42.872;25.314;2023-05-07T01:57:10;97246.28;;;8.83;80.05
42771;BME280;28426;42.872;25.314;2023-05-07T01:59:41;97237.97;;;8.78;79.80
42771;BME280;28426;42.872;25.314;2023-05-07T02:02:12;97238.47;;;8.73;79.98
42771;BME280;28426;42.872;25.314;2023-05-07T02:04:44;97233.00;;;8.67;80.21
42771;BME280;28426;42.872;25.314;2023-05-07T02:07:16;97228.22;;;8.62;79.99
42771;BME280;28426;42.872;25.314;2023-05-07T02:09:50;97229.53;;;8.58;80.27
42771;BME280;28426;42.872;25.314;2023-05-07T02:12:22;97223.88;;;8.53;80.51
42771;BME280;28426;42.872;25.314;2023-05-07T02:14:53;97217.88;;;8.50;80.61
42771;BME280;28426;42.872;25.314;2023-05-07T02:17:24;97219.88;;;8.48;81.03
42771;BME280;28426;42.872;25.314;2023-05-07T02:20:00;97218.22;;;8.47;80.90
42771;BME280;28426;42.872;25.314;2023-05-07T02:22:51;97221.03;;;8.46;80.83
42771;BME280;28426;42.872;25.314;2023-05-07T02:25:25;97222.19;;;8.43;80.65
42771;BME280;28426;42.872;25.314;2023-05-07T02:27:56;97223.38;;;8.41;80.97
42771;BME280;28426;42.872;25.314;2023-05-07T02:30:44;97218.88;;;8.41;80.94
42771;BME280;28426;42.872;25.314;2023-05-07T02:33:15;97218.88;;;8.41;81.12
42771;BME280;28426;42.872;25.314;2023-05-07T02:35:46;97213.91;;;8.38;81.09
42771;BME280;28426;42.872;25.314;2023-05-07T02:38:17;97202.28;;;8.31;80.78
42771;BME280;28426;42.872;25.314;2023-05-07T02:40:50;97207.25;;;8.34;80.80
42771;BME280;28426;42.872;25.314;2023-05-07T02:43:21;97210.28;;;8.31;81.05
42771;BME280;28426;42.872;25.314;2023-05-07T02:46:00;97212.25;;;8.29;80.78
42771;BME280;28426;42.872;25.314;2023-05-07T02:48:33;97207.25;;;8.25;80.92
42771;BME280;28426;42.872;25.314;2023-05-07T02:51:04;97202.94;;;8.16;80.66
42771;BME280;28426;42.872;25.314;2023-05-07T02:53:38;97207.94;;;8.19;80.90
42771;BME280;28426;42.872;25.314;2023-05-07T02:56:12;97214.09;;;8.11;80.75
42771;BME280;28426;42.872;25.314;2023-05-07T02:58:43;97208.28;;;8.08;80.95
42771;BME280;28426;42.872;25.314;2023-05-07T03:01:15;97204.31;;;8.04;81.04
42771;BME280;28426;42.872;25.314;2023-05-07T03:03:54;97213.94;;;8.05;81.07
42771;BME280;28426;42.872;25.314;2023-05-07T03:06:25;97217.59;;;8.04;81.09
42771;BME280;28426;42.872;25.314;2023-05-07T03:08:55;97220.56;;;8.01;81.42
42771;BME280;28426;42.872;25.314;2023-05-07T03:11:29;97223.22;;;8.01;81.45
42771;BME280;28426;42.872;25.314;2023-05-07T03:14:00;97216.41;;;7.98;81.42
42771;BME280;28426;42.872;25.314;2023-05-07T03:16:31;97219.91;;;7.98;81.32
42771;BME280;28426;42.872;25.314;2023-05-07T03:19:02;97215.75;;;7.96;81.69
42771;BME280;28426;42.872;25.314;2023-05-07T03:21:33;97225.56;;;7.95;81.58
42771;BME280;28426;42.872;25.314;2023-05-07T03:24:05;97232.84;;;7.93;81.81
42771;BME280;28426;42.872;25.314;2023-05-07T03:26:38;97236.19;;;7.95;81.81
42771;BME280;28426;42.872;25.314;2023-05-07T03:29:09;97232.03;;;7.93;81.77
42771;BME280;28426;42.872;25.314;2023-05-07T03:31:40;97229.22;;;7.94;81.72
42771;BME280;28426;42.872;25.314;2023-05-07T03:34:11;97227.53;;;7.93;81.62
42771;BME280;28426;42.872;25.314;2023-05-07T03:36:42;97234.53;;;7.94;81.53
42771;BME280;28426;42.872;25.314;2023-05-07T03:39:13;97233.69;;;7.94;81.68
42771;BME280;28426;42.872;25.314;2023-05-07T03:41:47;97242.66;;;7.93;81.48
42771;BME280;28426;42.872;25.314;2023-05-07T03:44:18;97232.03;;;7.93;81.55
42771;BME280;28426;42.872;25.314;2023-05-07T03:46:51;97226.88;;;7.91;81.43
42771;BME280;28426;42.872;25.314;2023-05-07T03:49:22;97233.19;;;7.90;81.74
42771;BME280;28426;42.872;25.314;2023-05-07T03:51:52;97234.16;;;7.89;81.56
42771;BME280;28426;42.872;25.314;2023-05-07T03:54:24;97235.16;;;7.88;81.78
42771;BME280;28426;42.872;25.314;2023-05-07T03:56:57;97243.16;;;7.88;81.63
42771;BME280;28426;42.872;25.314;2023-05-07T03:59:28;97241.50;;;7.87;81.68
42771;BME280;28426;42.872;25.314;2023-05-07T04:01:59;97242.13;;;7.89;81.90
42771;BME280;28426;42.872;25.314;2023-05-07T04:04:33;97234.84;;;7.91;81.91
42771;BME280;28426;42.872;25.314;2023-05-07T04:07:03;97247.97;;;7.93;81.86
42771;BME280;28426;42.872;25.314;2023-05-07T04:09:40;97247.31;;;7.99;82.06
42771;BME280;28426;42.872;25.314;2023-05-07T04:12:13;97248.63;;;8.03;82.17
42771;BME280;28426;42.872;25.314;2023-05-07T04:14:44;97245.50;;;8.08;82.32
42771;BME280;28426;42.872;25.314;2023-05-07T04:17:15;97240.34;;;8.15;82.27
42771;BME280;28426;42.872;25.314;2023-05-07T04:19:46;97249.47;;;8.20;82.64
42771;BME280;28426;42.872;25.314;2023-05-07T04:22:18;97244.47;;;8.25;82.85
42771;BME280;28426;42.872;25.314;2023-05-07T04:24:49;97249.78;;;8.34;82.87
42771;BME280;28426;42.872;25.314;2023-05-07T04:27:23;97249.16;;;8.40;82.77
42771;BME280;28426;42.872;25.314;2023-05-07T04:29:54;97243.16;;;8.46;82.48
42771;BME280;28426;42.872;25.314;2023-05-07T04:32:26;97244.31;;;8.52;82.51
42771;BME280;28426;42.872;25.314;2023-05-07T04:34:57;97252.31;;;8.60;82.75
42771;BME280;28426;42.872;25.314;2023-05-07T04:37:31;97254.13;;;8.68;82.95
42771;BME280;28426;42.872;25.314;2023-05-07T04:40:03;97249.97;;;8.74;82.86
42771;BME280;28426;42.872;25.314;2023-05-07T04:42:37;97250.91;;;8.81;82.74
42771;BME280;28426;42.872;25.314;2023-05-07T04:45:10;97258.06;;;8.89;82.85
42771;BME280;28426;42.872;25.314;2023-05-07T04:47:43;97252.91;;;8.96;82.71
42771;BME280;28426;42.872;25.314;2023-05-07T04:50:15;97256.03;;;9.08;82.76
42771;BME280;28426;42.872;25.314;2023-05-07T04:52:48;97256.81;;;9.16;82.64
42771;BME280;28426;42.872;25.314;2023-05-07T04:55:19;97253.28;;;9.24;82.75
42771;BME280;28426;42.872;25.314;2023-05-07T04:57:53;97252.25;;;9.34;82.82
42771;BME280;28426;42.872;25.314;2023-05-07T05:00:24;97255.53;;;9.44;82.77
42771;BME280;28426;42.872;25.314;2023-05-07T05:02:57;97258.94;;;9.61;83.39
42771;BME280;28426;42.872;25.314;2023-05-07T05:05:29;97257.63;;;9.89;83.68
42771;BME280;28426;42.872;25.314;2023-05-07T05:08:00;97268.72;;;10.24;83.59
42771;BME280;28426;42.872;25.314;2023-05-07T05:10:32;97267.34;;;10.67;83.86
42771;BME280;28426;42.872;25.314;2023-05-07T05:13:05;97266.47;;;11.20;82.40
42771;BME280;28426;42.872;25.314;2023-05-07T05:15:37;97270.88;;;11.80;82.52
42771;BME280;28426;42.872;25.314;2023-05-07T05:18:08;97269.47;;;12.42;81.74
42771;BME280;28426;42.872;25.314;2023-05-07T05:20:40;97267.66;;;13.07;80.61
42771;BME280;28426;42.872;25.314;2023-05-07T05:23:11;97265.97;;;13.77;79.96
42771;BME280;28426;42.872;25.314;2023-05-07T05:25:43;97266.06;;;14.44;78.20
42771;BME280;28426;42.872;25.314;2023-05-07T05:28:17;97270.59;;;15.11;74.60
42771;BME280;28426;42.872;25.314;2023-05-07T05:30:48;97275.59;;;15.67;72.75
42771;BME280;28426;42.872;25.314;2023-05-07T05:33:19;97277.84;;;16.16;68.14
42771;BME280;28426;42.872;25.314;2023-05-07T05:35:50;97268.28;;;16.52;64.54
42771;BME280;28426;42.872;25.314;2023-05-07T05:38:21;97270.47;;;16.88;65.40
42771;BME280;28426;42.872;25.314;2023-05-07T05:40:52;97266.78;;;17.26;64.40
42771;BME280;28426;42.872;25.314;2023-05-07T05:43:26;97268.88;;;17.61;62.91
42771;BME280;28426;42.872;25.314;2023-05-07T05:45:58;97270.53;;;17.93;61.05
42771;BME280;28426;42.872;25.314;2023-05-07T05:48:29;97277.59;;;18.25;60.60
42771;BME280;28426;42.872;25.314;2023-05-07T05:51:03;97271.34;;;18.55;59.77
42771;BME280;28426;42.872;25.314;2023-05-07T05:53:33;97279.25;;;18.92;60.25
42771;BME280;28426;42.872;25.314;2023-05-07T05:56:06;97277.38;;;19.29;57.98
42771;BME280;28426;42.872;25.314;2023-05-07T05:58:42;97276.25;;;19.66;56.83
42771;BME280;28426;42.872;25.314;2023-05-07T06:01:13;97278.63;;;19.91;55.39
42771;BME280;28426;42.872;25.314;2023-05-07T06:03:44;97273.72;;;20.17;55.30
42771;BME280;28426;42.872;25.314;2023-05-07T06:06:15;97271.81;;;20.47;55.86
42771;BME280;28426;42.872;25.314;2023-05-07T06:08:46;97265.88;;;20.84;55.17
42771;BME280;28426;42.872;25.314;2023-05-07T06:11:22;97260.44;;;21.19;52.80
42771;BME280;28426;42.872;25.314;2023-05-07T06:13:55;97273.34;;;21.51;52.79
42771;BME280;28426;42.872;25.314;2023-05-07T06:16:27;97270.75;;;21.84;50.75
42771;BME280;28426;42.872;25.314;2023-05-07T06:18:58;97265.97;;;22.18;51.81
42771;BME280;28426;42.872;25.314;2023-05-07T06:21:29;97263.25;;;22.51;50.58
42771;BME280;28426;42.872;25.314;2023-05-07T06:24:01;97269.19;;;22.76;49.36
42771;BME280;28426;42.872;25.314;2023-05-07T06:26:32;97266.41;;;23.03;48.52
42771;BME280;28426;42.872;25.314;2023-05-07T06:29:06;97270.19;;;23.35;47.93
42771;BME280;28426;42.872;25.314;2023-05-07T06:31:38;97270.59;;;23.64;46.29
42771;BME280;28426;42.872;25.314;2023-05-07T06:34:11;97264.66;;;23.94;44.12
42771;BME280;28426;42.872;25.314;2023-05-07T06:36:43;97265.88;;;24.29;43.35
42771;BME280;28426;42.872;25.314;2023-05-07T06:39:36;97257.72;;;24.55;40.71
42771;BME280;28426;42.872;25.314;2023-05-07T06:42:07;97258.78;;;24.69;40.09
42771;BME280;28426;42.872;25.314;2023-05-07T06:44:44;97256.63;;;24.92;39.28
42771;BME280;28426;42.872;25.314;2023-05-07T06:47:17;97254.94;;;25.23;38.41
42771;BME280;28426;42.872;25.314;2023-05-07T06:49:52;97252.63;;;25.61;38.14
42771;BME280;28426;42.872;25.314;2023-05-07T06:52:26;97252.41;;;26.03;36.47
42771;BME280;28426;42.872;25.314;2023-05-07T06:54:57;97249.53;;;26.29;34.37
42771;BME280;28426;42.872;25.314;2023-05-07T06:57:29;97250.41;;;26.59;33.15
42771;BME280;28426;42.872;25.314;2023-05-07T07:00:03;97251.53;;;26.87;31.34
42771;BME280;28426;42.872;25.314;2023-05-07T07:02:46;97255.56;;;27.00;31.57
42771;BME280;28426;42.872;25.314;2023-05-07T07:05:20;97255.72;;;27.09;31.48
42771;BME280;28426;42.872;25.314;2023-05-07T07:07:51;97256.41;;;27.25;30.62
42771;BME280;28426;42.872;25.314;2023-05-07T07:10:23;97254.53;;;27.45;30.75
42771;BME280;28426;42.872;25.314;2023-05-07T07:12:55;97250.47;;;27.67;30.15
42771;BME280;28426;42.872;25.314;2023-05-07T07:15:28;97248.03;;;27.85;30.60
42771;BME280;28426;42.872;25.314;2023-05-07T07:17:59;97251.75;;;28.13;29.94
42771;BME280;28426;42.872;25.314;2023-05-07T07:20:30;97255.03;;;28.35;28.64
42771;BME280;28426;42.872;25.314;2023-05-07T07:23:01;97251.94;;;28.55;29.26
42771;BME280;28426;42.872;25.314;2023-05-07T07:25:32;97255.50;;;28.75;28.72
42771;BME280;28426;42.872;25.314;2023-05-07T07:28:03;97247.63;;;29.02;28.41
42771;BME280;28426;42.872;25.314;2023-05-07T07:30:39;97253.97;;;29.30;28.08
42771;BME280;28426;42.872;25.314;2023-05-07T07:33:10;97248.91;;;29.52;27.79
42771;BME280;28426;42.872;25.314;2023-05-07T07:35:42;97247.84;;;29.75;27.13
42771;BME280;28426;42.872;25.314;2023-05-07T07:38:13;97253.53;;;29.93;26.32
42771;BME280;28426;42.872;25.314;2023-05-07T07:40:44;97252.91;;;30.10;25.73
42771;BME280;28426;42.872;25.314;2023-05-07T07:43:15;97250.25;;;30.05;25.36
42771;BME280;28426;42.872;25.314;2023-05-07T07:45:50;97245.88;;;30.04;25.25
42771;BME280;28426;42.872;25.314;2023-05-07T07:48:21;97247.94;;;29.98;24.24
42771;BME280;28426;42.872;25.314;2023-05-07T07:50:52;97252.22;;;29.91;24.06
42771;BME280;28426;42.872;25.314;2023-05-07T07:53:23;97261.81;;;29.79;23.57
42771;BME280;28426;42.872;25.314;2023-05-07T07:55:54;97256.84;;;29.67;23.16
42771;BME280;28426;42.872;25.314;2023-05-07T07:58:30;97262.44;;;29.62;23.22
42771;BME280;28426;42.872;25.314;2023-05-07T08:01:06;97248.69;;;29.62;22.44
42771;BME280;28426;42.872;25.314;2023-05-07T08:03:36;97250.53;;;29.67;22.60
42771;BME280;28426;42.872;25.314;2023-05-07T08:06:07;97249.28;;;29.73;22.17
42771;BME280;28426;42.872;25.314;2023-05-07T08:08:39;97244.00;;;29.76;22.61
42771;BME280;28426;42.872;25.314;2023-05-07T08:11:10;97243.78;;;29.73;22.27
42771;BME280;28426;42.872;25.314;2023-05-07T08:13:41;97244.81;;;29.77;22.07
42771;BME280;28426;42.872;25.314;2023-05-07T08:16:15;97239.31;;;29.77;22.11
42771;BME280;28426;42.872;25.314;2023-05-07T08:18:48;97240.94;;;29.78;22.42
42771;BME280;28426;42.872;25.314;2023-05-07T08:21:19;97251.13;;;29.78;21.81
42771;BME280;28426;42.872;25.314;2023-05-07T08:23:51;97241.75;;;29.79;22.07
42771;BME280;28426;42.872;25.314;2023-05-07T08:26:21;97241.16;;;29.68;22.11
42771;BME280;28426;42.872;25.314;2023-05-07T08:28:52;97228.34;;;29.63;21.96
42771;BME280;28426;42.872;25.314;2023-05-07T08:31:26;97236.47;;;29.40;20.59
42771;BME280;28426;42.872;25.314;2023-05-07T08:33:58;97231.78;;;29.41;20.81
42771;BME280;28426;42.872;25.314;2023-05-07T08:36:28;97230.34;;;29.43;19.25
42771;BME280;28426;42.872;25.314;2023-05-07T08:39:00;97226.50;;;29.58;19.89
42771;BME280;28426;42.872;25.314;2023-05-07T08:41:31;97224.88;;;29.71;18.98
42771;BME280;28426;42.872;25.314;2023-05-07T08:44:03;97216.97;;;29.93;19.07
42771;BME280;28426;42.872;25.314;2023-05-07T08:46:39;97222.81;;;30.28;19.35
42771;BME280;28426;42.872;25.314;2023-05-07T08:49:11;97220.63;;;30.39;18.70
42771;BME280;28426;42.872;25.314;2023-05-07T08:51:43;97220.78;;;30.43;18.50
42771;BME280;28426;42.872;25.314;2023-05-07T08:54:16;97220.22;;;30.54;18.21
42771;BME280;28426;42.872;25.314;2023-05-07T08:56:48;97218.66;;;30.62;17.99
42771;BME280;28426;42.872;25.314;2023-05-07T08:59:19;97225.25;;;30.52;18.10
42771;BME280;28426;42.872;25.314;2023-05-07T09:01:53;97220.34;;;30.26;17.82
42771;BME280;28426;42.872;25.314;2023-05-07T09:04:24;97230.16;;;29.68;18.15
42771;BME280;28426;42.872;25.314;2023-05-07T09:06:55;97223.13;;;29.19;19.41
42771;BME280;28426;42.872;25.314;2023-05-07T09:09:34;97226.41;;;28.88;20.43
42771;BME280;28426;42.872;25.314;2023-05-07T09:12:06;97226.19;;;28.70;20.86
42771;BME280;28426;42.872;25.314;2023-05-07T09:14:37;97220.66;;;28.56;20.99
42771;BME280;28426;42.872;25.314;2023-05-07T09:17:11;97227.34;;;28.50;21.13
42771;BME280;28426;42.872;25.314;2023-05-07T09:19:43;97228.47;;;28.30;20.88
42771;BME280;28426;42.872;25.314;2023-05-07T09:22:16;97225.13;;;28.14;21.02
42771;BME280;28426;42.872;25.314;2023-05-07T09:25:01;97215.34;;;28.07;21.94
42771;BME280;28426;42.872;25.314;2023-05-07T09:27:31;97220.75;;;28.13;22.06
42771;BME280;28426;42.872;25.314;2023-05-07T09:30:04;97212.69;;;28.02;21.55
42771;BME280;28426;42.872;25.314;2023-05-07T09:32:39;97215.06;;;27.90;21.02
42771;BME280;28426;42.872;25.314;2023-05-07T09:35:16;97212.84;;;27.73;21.82
42771;BME280;28426;42.872;25.314;2023-05-07T09:37:54;97198.38;;;27.67;22.56
42771;BME280;28426;42.872;25.314;2023-05-07T09:40:30;97198.75;;;27.79;22.59
42771;BME280;28426;42.872;25.314;2023-05-07T09:43:09;97198.81;;;27.93;23.38
42771;BME280;28426;42.872;25.314;2023-05-07T09:45:47;97198.81;;;28.13;23.03
42771;BME280;28426;42.872;25.314;2023-05-07T09:48:25;97191.03;;;28.20;21.17
42771;BME280;28426;42.872;25.314;2023-05-07T09:50:59;97195.03;;;28.09;20.69
42771;BME280;28426;42.872;25.314;2023-05-07T09:53:33;97191.41;;;27.94;21.64
42771;BME280;28426;42.872;25.314;2023-05-07T09:56:06;97185.72;;;27.71;21.99
42771;BME280;28426;42.872;25.314;2023-05-07T09:58:37;97192.06;;;27.66;22.99
42771;BME280;28426;42.872;25.314;2023-05-07T10:01:12;97190.75;;;27.64;22.54
42771;BME280;28426;42.872;25.314;2023-05-07T10:03:46;97187.34;;;27.72;22.41
42771;BME280;28426;42.872;25.314;2023-05-07T10:06:19;97182.31;;;27.79;22.56
42771;BME280;28426;42.872;25.314;2023-05-07T10:08:51;97175.63;;;27.86;22.88
42771;BME280;28426;42.872;25.314;2023-05-07T10:11:22;97187.19;;;28.02;22.92
42771;BME280;28426;42.872;25.314;2023-05-07T10:13:54;97172.94;;;28.19;22.92
42771;BME280;28426;42.872;25.314;2023-05-07T10:16:25;97165.44;;;28.44;22.50
42771;BME280;28426;42.872;25.314;2023-05-07T10:19:02;97170.72;;;28.54;21.90
42771;BME280;28426;42.872;25.314;2023-05-07T10:21:36;97171.16;;;28.62;22.07
42771;BME280;28426;42.872;25.314;2023-05-07T10:24:10;97166.94;;;28.50;21.41
42771;BME280;28426;42.872;25.314;2023-05-07T10:26:47;97166.00;;;28.41;21.41
42771;BME280;28426;42.872;25.314;2023-05-07T10:29:30;97162.78;;;28.39;22.11
42771;BME280;28426;42.872;25.314;2023-05-07T10:32:31;97154.34;;;28.49;21.85
42771;BME280;28426;42.872;25.314;2023-05-07T10:35:17;97160.09;;;28.67;21.53
42771;BME280;28426;42.872;25.314;2023-05-07T10:37:50;97150.72;;;28.68;22.09
42771;BME280;28426;42.872;25.314;2023-05-07T10:40:23;97149.53;;;28.74;22.36
42771;BME280;28426;42.872;25.314;2023-05-07T10:42:56;97157.66;;;28.79;22.39
42771;BME280;28426;42.872;25.314;2023-05-07T10:45:32;97150.53;;;28.78;21.77
42771;BME280;28426;42.872;25.314;2023-05-07T10:48:09;97155.47;;;28.48;21.14
42771;BME280;28426;42.872;25.314;2023-05-07T10:51:23;97150.53;;;26.86;21.39
42771;BME280;28426;42.872;25.314;2023-05-07T10:54:21;97146.59;;;24.97;23.68
42771;BME280;28426;42.872;25.314;2023-05-07T11:00:42;97145.28;;;22.52;26.64
42771;BME280;28426;42.872;25.314;2023-05-07T11:03:23;97138.97;;;22.08;27.40
42771;BME280;28426;42.872;25.314;2023-05-07T11:06:12;97138.78;;;21.88;28.40
42771;BME280;28426;42.872;25.314;2023-05-07T11:08:57;97140.13;;;21.85;28.87
42771;BME280;28426;42.872;25.314;2023-05-07T11:11:45;97134.84;;;21.73;29.37
42771;BME280;28426;42.872;25.314;2023-05-07T11:14:45;97135.28;;;21.65;28.51
42771;BME280;28426;42.872;25.314;2023-05-07T11:17:25;97137.34;;;21.52;29.04
42771;BME280;28426;42.872;25.314;2023-05-07T11:20:07;97129.28;;;21.35;29.70
42771;BME280;28426;42.872;25.314;2023-05-07T11:22:47;97135.09;;;21.22;29.45
42771;BME280;28426;42.872;25.314;2023-05-07T11:25:26;97122.31;;;21.17;28.87
42771;BME280;28426;42.872;25.314;2023-05-07T11:28:06;97134.97;;;21.34;29.32
42771;BME280;28426;42.872;25.314;2023-05-07T11:30:43;97135.13;;;21.49;28.89
42771;BME280;28426;42.872;25.314;2023-05-07T11:33:17;97121.97;;;21.63;29.54
42771;BME280;28426;42.872;25.314;2023-05-07T11:35:53;97131.22;;;21.90;28.75
42771;BME280;28426;42.872;25.314;2023-05-07T11:38:33;97130.00;;;22.08;28.32
42771;BME280;28426;42.872;25.314;2023-05-07T11:41:07;97130.66;;;22.26;29.17
42771;BME280;28426;42.872;25.314;2023-05-07T11:43:53;97125.09;;;22.43;28.00
42771;BME280;28426;42.872;25.314;2023-05-07T11:46:25;97120.81;;;22.52;28.00
42771;BME280;28426;42.872;25.314;2023-05-07T11:48:57;97124.13;;;22.59;27.74
42771;BME280;28426;42.872;25.314;2023-05-07T11:51:28;97123.38;;;22.69;28.38
42771;BME280;28426;42.872;25.314;2023-05-07T11:53:59;97122.06;;;22.77;28.28
42771;BME280;28426;42.872;25.314;2023-05-07T11:56:34;97109.31;;;22.88;28.30
42771;BME280;28426;42.872;25.314;2023-05-07T11:59:05;97112.06;;;22.93;28.17
42771;BME280;28426;42.872;25.314;2023-05-07T12:01:36;97109.06;;;22.95;27.45
42771;BME280;28426;42.872;25.314;2023-05-07T12:04:09;97107.72;;;22.97;27.93
42771;BME280;28426;42.872;25.314;2023-05-07T12:06:40;97096.59;;;22.99;27.49
42771;BME280;28426;42.872;25.314;2023-05-07T12:09:11;97097.16;;;23.01;27.68
42771;BME280;28426;42.872;25.314;2023-05-07T12:11:45;97089.78;;;22.96;27.57
42771;BME280;28426;42.872;25.314;2023-05-07T12:14:16;97091.13;;;22.94;26.96
42771;BME280;28426;42.872;25.314;2023-05-07T12:16:47;97094.88;;;22.82;27.03
42771;BME280;28426;42.872;25.314;2023-05-07T12:19:18;97090.47;;;22.71;27.25
42771;BME280;28426;42.872;25.314;2023-05-07T12:21:50;97089.34;;;22.62;27.68
42771;BME280;28426;42.872;25.314;2023-05-07T12:24:21;97088.75;;;22.54;27.60
42771;BME280;28426;42.872;25.314;2023-05-07T12:26:55;97083.00;;;22.51;27.55
42771;BME280;28426;42.872;25.314;2023-05-07T12:29:28;97083.53;;;22.53;27.75
42771;BME280;28426;42.872;25.314;2023-05-07T12:31:58;97076.78;;;22.55;27.56
42771;BME280;28426;42.872;25.314;2023-05-07T12:34:33;97073.03;;;22.62;27.60
42771;BME280;28426;42.872;25.314;2023-05-07T12:37:04;97072.78;;;22.63;26.81
42771;BME280;28426;42.872;25.314;2023-05-07T12:39:35;97071.41;;;22.60;27.12
42771;BME280;28426;42.872;25.314;2023-05-07T12:42:14;97066.47;;;22.57;27.62
42771;BME280;28426;42.872;25.314;2023-05-07T12:44:46;97073.56;;;22.58;28.28
42771;BME280;28426;42.872;25.314;2023-05-07T12:47:17;97069.75;;;22.59;27.22
42771;BME280;28426;42.872;25.314;2023-05-07T12:49:48;97075.16;;;22.54;27.21
42771;BME280;28426;42.872;25.314;2023-05-07T12:52:20;97069.16;;;22.52;27.85
42771;BME280;28426;42.872;25.314;2023-05-07T12:54:51;97070.78;;;22.53;27.82
42771;BME280;28426;42.872;25.314;2023-05-07T12:57:24;97069.16;;;22.52;28.11
42771;BME280;28426;42.872;25.314;2023-05-07T12:59:57;97063.19;;;22.55;27.93
42771;BME280;28426;42.872;25.314;2023-05-07T13:02:32;97059.91;;;22.53;27.92
42771;BME280;28426;42.872;25.314;2023-05-07T13:05:04;97063.19;;;22.55;28.86
42771;BME280;28426;42.872;25.314;2023-05-07T13:07:35;97058.06;;;22.59;28.47
42771;BME280;28426;42.872;25.314;2023-05-07T13:10:08;97064.31;;;22.65;28.03
42771;BME280;28426;42.872;25.314;2023-05-07T13:12:41;97058.94;;;22.70;27.79
42771;BME280;28426;42.872;25.314;2023-05-07T13:15:12;97051.84;;;22.69;28.07
42771;BME280;28426;42.872;25.314;2023-05-07T13:17:44;97055.09;;;22.66;27.26
42771;BME280;28426;42.872;25.314;2023-05-07T13:20:15;97061.59;;;22.59;27.07
42771;BME280;28426;42.872;25.314;2023-05-07T13:22:46;97053.88;;;22.51;27.03
42771;BME280;28426;42.872;25.314;2023-05-07T13:25:17;97045.19;;;22.49;27.55
42771;BME280;28426;42.872;25.314;2023-05-07T13:27:51;97044.66;;;22.47;27.91